Time;durP1;ratioP1;P1;durP2;ratioP2;P2;SDS_P1;SDS_P2;PMS_P1;PMS_P2;Temp;Humidity;BMP_temperature;BMP_pressure;BME280_temperature;BME280_humidity;BME280_pressure;Samples;Min_cycle;Max_cycle;Signal;HPM_P1;HPM_P2
2021/10/12 00:01:24;;;;;;;7.32;2.58;;;11.00;86.60;;;;;;5072916;28;20491;-46
2021/10/12 00:03:49;;;;;;;6.25;2.70;;;11.10;86.60;;;;;;5072462;28;20033;-47
2021/10/12 00:06:16;;;;;;;6.35;2.25;;;11.10;86.60;;;;;;5072417;28;20052;-49
2021/10/12 00:08:41;;;;;;;7.13;2.42;;;11.00;86.60;;;;;;5037813;28;20035;-50
2021/10/12 00:11:07;;;;;;;9.27;2.65;;;11.00;86.70;;;;;;5072598;28;20036;-49
2021/10/12 00:13:33;;;;;;;13.07;3.00;;;10.90;87.00;;;;;;5072393;28;20029;-48
2021/10/12 00:15:59;;;;;;;7.78;2.63;;;10.90;87.00;;;;;;5072382;28;20021;-49
2021/10/12 00:18:25;;;;;;;7.00;2.80;;;10.90;87.20;;;;;;5072419;28;20383;-48
2021/10/12 00:20:51;;;;;;;5.53;2.85;;;11.10;86.90;;;;;;5075012;28;20021;-47
2021/10/12 00:23:17;;;;;;;7.13;2.65;;;10.90;87.30;;;;;;5076535;28;20033;-49
2021/10/12 00:25:42;;;;;;;15.70;3.10;;;11.10;87.40;;;;;;5076388;28;20372;-47
2021/10/12 00:28:08;;;;;;;9.45;3.55;;;11.10;87.20;;;;;;5076347;28;20131;-47
2021/10/12 00:30:34;;;;;;;5.72;2.80;;;11.10;87.20;;;;;;5076443;28;20085;-50
2021/10/12 00:33:00;;;;;;;18.95;5.05;;;11.10;87.40;;;;;;5076017;28;20033;-47
2021/10/12 00:35:25;;;;;;;7.53;2.40;;;11.10;87.50;;;;;;5076265;28;20028;-46
2021/10/12 00:37:51;;;;;;;11.65;4.05;;;11.10;87.60;;;;;;5075925;28;20473;-50
2021/10/12 00:40:17;;;;;;;9.15;3.90;;;11.00;87.50;;;;;;5075944;28;20103;-49
2021/10/12 00:42:42;;;;;;;10.80;3.88;;;10.90;88.10;;;;;;5058517;28;20112;-49
2021/10/12 00:45:11;;;;;;;5.57;2.60;;;10.90;88.40;;;;;;5076131;28;20028;-50
2021/10/12 00:47:37;;;;;;;13.27;3.55;;;10.90;88.50;;;;;;5076094;28;20020;-51
2021/10/12 00:50:04;;;;;;;11.73;4.20;;;10.80;88.90;;;;;;5075760;28;20032;-50
2021/10/12 00:52:30;;;;;;;11.13;4.63;;;10.80;89.10;;;;;;5075634;28;20025;-49
2021/10/12 00:54:55;;;;;;;10.75;4.30;;;10.80;89.20;;;;;;5075654;28;20384;-47
2021/10/12 00:57:21;;;;;;;12.15;4.15;;;10.80;89.50;;;;;;5075909;28;20486;-50
2021/10/12 00:59:47;;;;;;;12.00;4.72;;;10.90;89.60;;;;;;5075393;28;20082;-48
2021/10/12 01:02:12;;;;;;;18.85;5.50;;;10.90;89.40;;;;;;5075564;28;20047;-50
2021/10/12 01:04:39;;;;;;;17.33;5.70;;;10.80;89.60;;;;;;5057113;28;20041;-49
2021/10/12 01:07:05;;;;;;;9.98;5.45;;;10.80;90.00;;;;;;5075091;28;20465;-47
2021/10/12 01:09:31;;;;;;;15.05;5.35;;;10.80;90.00;;;;;;5075353;28;20034;-48
2021/10/12 01:11:58;;;;;;;15.10;5.53;;;10.80;90.10;;;;;;5075171;28;20098;-47
2021/10/12 01:14:26;;;;;;;18.65;6.47;;;10.90;90.10;;;;;;5075337;28;20111;-48
2021/10/12 01:16:51;;;;;;;18.23;6.47;;;10.90;89.80;;;;;;5075315;28;20028;-47
2021/10/12 01:19:17;;;;;;;16.95;6.43;;;10.90;90.10;;;;;;5075036;28;20020;-46
2021/10/12 01:21:48;;;;;;;15.20;5.93;;;11.00;90.00;;;;;;5075174;28;20042;-47
2021/10/12 01:24:15;;;;;;;20.55;6.95;;;11.00;89.70;;;;;;5056803;28;20021;-51
2021/10/12 01:26:41;;;;;;;19.75;6.35;;;11.10;89.80;;;;;;5075512;28;20373;-48
2021/10/12 01:29:10;;;;;;;17.85;7.45;;;10.90;90.00;;;;;;5074719;28;20024;-48
2021/10/12 01:31:36;;;;;;;11.60;6.93;;;10.90;90.30;;;;;;5073620;28;20052;-51
2021/10/12 01:34:13;;;;;;;25.67;10.13;;;10.80;90.80;;;;;;5074712;28;20036;-47
2021/10/12 01:36:39;;;;;;;20.13;7.55;;;10.80;91.10;;;;;;5074949;28;20480;-48
2021/10/12 01:39:05;;;;;;;13.40;6.93;;;10.70;91.50;;;;;;5075078;28;20070;-49
2021/10/12 01:41:30;;;;;;;19.42;8.10;;;10.70;91.60;;;;;;5057280;28;20516;-49
2021/10/12 01:43:56;;;;;;;18.15;9.07;;;10.70;91.60;;;;;;5056981;28;20055;-49
2021/10/12 01:46:22;;;;;;;23.33;8.52;;;10.70;91.60;;;;;;5074844;28;20423;-50
2021/10/12 01:48:48;;;;;;;13.68;7.93;;;10.60;91.70;;;;;;5074729;28;20051;-49
2021/10/12 01:51:13;;;;;;;28.33;9.88;;;10.70;91.90;;;;;;5057043;28;20025;-50
2021/10/12 01:53:39;;;;;;;27.88;11.27;;;10.60;91.80;;;;;;5074460;28;20032;-48
2021/10/12 01:56:05;;;;;;;19.02;10.57;;;10.60;92.00;;;;;;5074788;28;20036;-51
2021/10/12 01:58:31;;;;;;;19.17;11.15;;;10.60;91.90;;;;;;5074938;28;20073;-48
2021/10/12 02:00:57;;;;;;;23.23;11.75;;;10.70;91.80;;;;;;5074701;28;20472;-50
2021/10/12 02:03:22;;;;;;;18.50;10.98;;;10.70;91.70;;;;;;5074599;28;20025;-48
2021/10/12 02:05:48;;;;;;;17.85;10.90;;;10.70;91.80;;;;;;5074276;28;20044;-47
2021/10/12 02:08:13;;;;;;;24.35;12.07;;;10.60;91.80;;;;;;5056290;28;20024;-50
2021/10/12 02:10:39;;;;;;;33.30;15.02;;;10.50;92.30;;;;;;5074422;28;20024;-49
2021/10/12 02:13:05;;;;;;;36.17;18.05;;;10.50;92.30;;;;;;5074162;28;20078;-48
2021/10/12 02:15:30;;;;;;;35.33;17.92;;;10.50;92.30;;;;;;5074666;28;20100;-51
2021/10/12 02:17:56;;;;;;;45.00;24.63;;;10.60;92.40;;;;;;5074207;28;20031;-50
2021/10/12 02:20:22;;;;;;;42.75;26.77;;;10.60;92.30;;;;;;5074294;28;20154;-48
2021/10/12 02:22:47;;;;;;;48.28;28.77;;;10.60;92.20;;;;;;5073899;28;20090;-48
2021/10/12 02:25:13;;;;;;;50.25;30.05;;;10.60;91.90;;;;;;5055887;28;20029;-51
2021/10/12 02:27:39;;;;;;;50.97;30.98;;;10.70;92.00;;;;;;5074133;28;20024;-48
2021/10/12 02:30:06;;;;;;;57.28;32.38;;;10.60;91.80;;;;;;5074182;28;20514;-48
2021/10/12 02:32:32;;;;;;;59.78;33.45;;;10.60;92.10;;;;;;5073993;28;20029;-47
2021/10/12 02:34:57;;;;;;;54.80;33.95;;;10.60;92.10;;;;;;5073972;28;20097;-47
2021/10/12 02:37:23;;;;;;;56.72;33.35;;;10.60;92.20;;;;;;5074246;28;20413;-47
2021/10/12 02:39:49;;;;;;;63.15;36.95;;;10.60;92.00;;;;;;5056090;28;20016;-48
2021/10/12 02:42:14;;;;;;;59.63;36.67;;;10.60;92.10;;;;;;5073435;28;20017;-46
2021/10/12 02:44:40;;;;;;;54.45;38.55;;;10.60;91.80;;;;;;5073407;28;20027;-49
2021/10/12 02:47:06;;;;;;;63.97;40.22;;;10.60;91.60;;;;;;5073762;28;20500;-49
2021/10/12 02:49:31;;;;;;;70.47;39.97;;;10.50;91.40;;;;;;5073711;28;20117;-51
2021/10/12 02:51:57;;;;;;;69.78;38.28;;;10.50;91.70;;;;;;5073433;28;20036;-50
2021/10/12 02:54:23;;;;;;;63.40;38.83;;;10.60;91.90;;;;;;5073481;28;20024;-49
2021/10/12 02:56:48;;;;;;;60.63;34.38;;;10.50;91.80;;;;;;5074249;28;20376;-47
2021/10/12 02:59:14;;;;;;;52.38;33.17;;;10.60;91.90;;;;;;5073363;28;20024;-49
2021/10/12 03:01:39;;;;;;;46.35;29.63;;;10.50;91.80;;;;;;5073544;28;20483;-48
2021/10/12 03:04:05;;;;;;;41.88;26.13;;;10.50;92.10;;;;;;5056108;28;20444;-51
2021/10/12 03:06:31;;;;;;;40.22;24.42;;;10.50;92.20;;;;;;5073181;28;20040;-50
2021/10/12 03:08:57;;;;;;;36.00;22.42;;;10.30;92.30;;;;;;5073218;28;20028;-49
2021/10/12 03:11:23;;;;;;;35.95;19.25;;;10.40;92.60;;;;;;5055263;28;20044;-48
2021/10/12 03:13:48;;;;;;;31.13;18.05;;;10.30;92.60;;;;;;5072956;28;20477;-49
2021/10/12 03:16:14;;;;;;;32.28;16.65;;;10.30;92.90;;;;;;5073310;28;20062;-47
2021/10/12 03:18:40;;;;;;;30.88;17.02;;;10.30;92.90;;;;;;5073242;28;20470;-48
2021/10/12 03:21:06;;;;;;;39.10;16.52;;;10.30;92.90;;;;;;5055051;28;20025;-48
2021/10/12 03:23:32;;;;;;;31.15;17.13;;;10.30;92.90;;;;;;5055307;28;20024;-47
2021/10/12 03:25:58;;;;;;;32.08;16.48;;;10.30;92.90;;;;;;5073556;28;20065;-50
2021/10/12 03:28:24;;;;;;;35.38;17.95;;;10.30;93.00;;;;;;5055273;28;20024;-47
2021/10/12 03:30:50;;;;;;;36.47;17.00;;;10.20;93.10;;;;;;5072920;28;20384;-48
2021/10/12 03:33:15;;;;;;;46.33;19.38;;;10.20;93.30;;;;;;5073063;28;20348;-48
2021/10/12 03:35:50;;;;;;;36.65;18.20;;;10.10;93.40;;;;;;5072865;28;20036;-51
2021/10/12 03:38:15;;;;;;;41.53;19.10;;;10.20;93.40;;;;;;5072840;28;20481;-51
2021/10/12 03:40:41;;;;;;;40.28;19.60;;;10.30;93.40;;;;;;5073008;28;20021;-48
2021/10/12 03:43:06;;;;;;;44.47;21.27;;;10.30;93.30;;;;;;5073044;28;20037;-48
2021/10/12 03:45:32;;;;;;;47.78;20.48;;;10.30;93.10;;;;;;5054922;28;20021;-50
2021/10/12 03:47:57;;;;;;;49.78;19.67;;;10.30;93.10;;;;;;5072692;28;20023;-50
2021/10/12 03:50:23;;;;;;;39.47;18.25;;;10.30;93.00;;;;;;5072593;28;20020;-49
2021/10/12 03:52:49;;;;;;;42.78;18.95;;;10.30;93.00;;;;;;5054904;28;20021;-49
2021/10/12 03:55:14;;;;;;;28.98;16.15;;;10.20;92.90;;;;;;5039341;28;20024;-50
2021/10/12 03:57:40;;;;;;;37.65;18.77;;;10.20;93.00;;;;;;5058829;28;20104;-52
2021/10/12 04:00:07;;;;;;;37.78;17.77;;;10.20;93.20;;;;;;5077318;28;20031;-50
2021/10/12 04:02:33;;;;;;;31.73;16.00;;;10.20;93.10;;;;;;5077130;28;20031;-52
2021/10/12 04:04:59;;;;;;;34.55;16.23;;;10.20;93.20;;;;;;5076447;28;20374;-49
2021/10/12 04:07:25;;;;;;;35.53;16.90;;;10.20;93.20;;;;;;5076510;28;20095;-48
2021/10/12 04:09:50;;;;;;;32.92;15.70;;;10.10;93.40;;;;;;5058455;28;20020;-51
2021/10/12 04:12:16;;;;;;;31.52;16.55;;;10.20;93.40;;;;;;5076689;28;20024;-51
2021/10/12 04:14:42;;;;;;;28.90;17.20;;;10.20;93.30;;;;;;5058317;28;20020;-48
2021/10/12 04:17:08;;;;;;;32.20;16.88;;;10.20;93.20;;;;;;5076597;28;20518;-47
2021/10/12 04:19:33;;;;;;;39.97;16.95;;;10.20;93.30;;;;;;5076350;28;20460;-49
2021/10/12 04:21:59;;;;;;;38.78;19.20;;;10.20;93.30;;;;;;5076234;28;20376;-51
2021/10/12 04:24:25;;;;;;;49.00;18.98;;;10.20;93.40;;;;;;5075942;28;20025;-50
2021/10/12 04:26:51;;;;;;;46.25;17.75;;;10.20;93.40;;;;;;5075122;28;20096;-48
2021/10/12 04:29:16;;;;;;;30.10;16.15;;;10.20;93.40;;;;;;5075593;28;20059;-52
2021/10/12 04:31:42;;;;;;;29.73;14.55;;;10.20;93.30;;;;;;5075586;28;20099;-50
2021/10/12 04:34:08;;;;;;;33.95;15.75;;;10.20;93.30;;;;;;5075374;28;20082;-50
2021/10/12 04:36:34;;;;;;;36.17;14.82;;;10.20;93.20;;;;;;5075152;28;20091;-50
2021/10/12 04:39:00;;;;;;;29.20;13.30;;;10.20;93.20;;;;;;5075060;28;20021;-49
2021/10/12 04:41:25;;;;;;;30.65;15.93;;;10.30;93.20;;;;;;5075204;28;20372;-48
2021/10/12 04:43:51;;;;;;;34.88;16.25;;;10.30;93.10;;;;;;5075081;28;20086;-50
2021/10/12 04:46:18;;;;;;;30.85;14.98;;;10.30;93.00;;;;;;5076920;28;20069;-52
2021/10/12 04:48:44;;;;;;;33.50;16.67;;;10.30;93.20;;;;;;5075830;28;20055;-50
2021/10/12 04:51:09;;;;;;;37.78;17.88;;;10.20;93.30;;;;;;5056905;28;20103;-50
2021/10/12 04:53:35;;;;;;;40.42;19.08;;;10.20;93.40;;;;;;5074710;28;20108;-48
2021/10/12 04:56:01;;;;;;;40.88;21.42;;;10.30;93.50;;;;;;5075378;28;20029;-49
2021/10/12 04:58:26;;;;;;;48.15;24.13;;;10.30;93.30;;;;;;5075282;28;20029;-47
2021/10/12 05:00:52;;;;;;;49.30;23.48;;;10.30;93.20;;;;;;5075072;28;20025;-50
2021/10/12 05:03:18;;;;;;;52.20;23.25;;;10.30;93.30;;;;;;5075573;28;20024;-48
2021/10/12 05:05:44;;;;;;;61.47;27.75;;;10.30;93.20;;;;;;5075231;28;20423;-49
2021/10/12 05:08:09;;;;;;;66.22;28.50;;;10.30;93.20;;;;;;5075751;28;20037;-52
2021/10/12 05:10:35;;;;;;;50.55;24.83;;;10.30;93.20;;;;;;5075477;28;20032;-48
2021/10/12 05:13:00;;;;;;;52.38;25.33;;;10.30;93.20;;;;;;5075575;28;20082;-49
2021/10/12 05:15:28;;;;;;;52.58;25.95;;;10.30;93.20;;;;;;5075307;28;20423;-50
2021/10/12 05:17:54;;;;;;;46.65;24.05;;;10.30;93.10;;;;;;5057338;28;20381;-49
2021/10/12 05:20:20;;;;;;;58.17;24.00;;;10.20;93.10;;;;;;5075270;28;20016;-37
2021/10/12 05:22:47;;;;;;;44.83;24.48;;;10.20;93.20;;;;;;5075481;28;20020;-37
2021/10/12 05:25:14;;;;;;;51.95;24.40;;;10.20;93.20;;;;;;5075062;28;20096;-37
2021/10/12 05:27:40;;;;;;;46.30;22.67;;;10.20;93.30;;;;;;5075067;28;20016;-37
2021/10/12 05:30:11;;;;;;;41.60;20.58;;;10.30;93.20;;;;;;5075486;28;20372;-37
2021/10/12 05:32:39;;;;;;;46.63;22.88;;;10.30;93.10;;;;;;5057119;28;20443;-37
2021/10/12 05:35:06;;;;;;;44.10;21.58;;;10.30;93.00;;;;;;5076027;28;20094;-37
2021/10/12 05:37:32;;;;;;;43.88;23.58;;;10.30;93.00;;;;;;5074933;28;20070;-37
2021/10/12 05:39:58;;;;;;;43.88;21.23;;;10.30;92.80;;;;;;5074938;28;20024;-37
2021/10/12 05:42:24;;;;;;;33.70;18.25;;;10.30;92.90;;;;;;5074735;28;20029;-37
2021/10/12 05:44:49;;;;;;;37.80;19.58;;;10.30;92.70;;;;;;5075379;28;20032;-37
2021/10/12 05:47:15;;;;;;;42.10;19.98;;;10.20;92.90;;;;;;5074907;28;20028;-38
2021/10/12 05:49:41;;;;;;;44.30;20.38;;;10.30;92.80;;;;;;5074809;28;20073;-37
2021/10/12 05:52:11;;;;;;;42.28;19.05;;;10.30;92.70;;;;;;5074889;28;20032;-36
2021/10/12 05:54:43;;;;;;;38.63;19.70;;;10.30;92.60;;;;;;5040391;28;20028;-36
2021/10/12 05:57:19;;;;;;;31.20;16.65;;;10.30;92.60;;;;;;5074895;28;20070;-36
2021/10/12 05:59:45;;;;;;;32.83;18.55;;;10.30;92.40;;;;;;5074440;28;20017;-36
2021/10/12 06:02:10;;;;;;;31.63;15.25;;;10.30;92.30;;;;;;5074677;28;20016;-37
2021/10/12 06:04:36;;;;;;;27.33;15.57;;;10.30;92.40;;;;;;5052389;28;20052;-37
2021/10/12 06:07:01;;;;;;;30.20;14.95;;;10.30;92.30;;;;;;5036715;28;20087;-36
2021/10/12 06:09:27;;;;;;;24.02;14.30;;;10.30;92.30;;;;;;5054543;28;20135;-36
2021/10/12 06:11:53;;;;;;;31.02;12.02;;;10.20;92.40;;;;;;5054193;28;20031;-37
2021/10/12 06:14:19;;;;;;;24.83;13.13;;;10.30;92.40;;;;;;5053895;28;20469;-36
2021/10/12 06:16:44;;;;;;;25.77;13.25;;;10.30;92.30;;;;;;5054295;28;20037;-37
2021/10/12 06:19:10;;;;;;;28.88;13.43;;;10.30;92.20;;;;;;5053246;28;20022;-36
2021/10/12 06:21:35;;;;;;;27.83;13.63;;;10.30;92.30;;;;;;5053916;28;20068;-36
2021/10/12 06:24:01;;;;;;;27.75;12.88;;;10.30;92.30;;;;;;5053964;28;20039;-36
2021/10/12 06:26:27;;;;;;;28.27;12.80;;;10.30;92.20;;;;;;5053776;28;20025;-37
2021/10/12 06:28:52;;;;;;;24.02;12.48;;;10.30;92.10;;;;;;5054116;28;20424;-39
2021/10/12 06:31:18;;;;;;;32.92;12.00;;;10.40;92.00;;;;;;5054030;28;20427;-36
2021/10/12 06:33:43;;;;;;;26.17;12.30;;;10.30;91.80;;;;;;5053915;28;20029;-37
2021/10/12 06:36:09;;;;;;;28.63;13.57;;;10.30;91.70;;;;;;5053371;28;20028;-38
2021/10/12 06:38:35;;;;;;;22.90;10.93;;;10.30;91.80;;;;;;5053661;28;20020;-38
2021/10/12 06:41:00;;;;;;;20.67;11.90;;;10.30;91.80;;;;;;5053541;28;20032;-37
2021/10/12 06:43:26;;;;;;;23.88;10.88;;;10.30;91.70;;;;;;5053665;28;20427;-37
2021/10/12 06:45:51;;;;;;;19.52;10.73;;;10.30;91.70;;;;;;5053095;28;20078;-38
2021/10/12 06:48:18;;;;;;;16.20;10.02;;;10.40;91.60;;;;;;5052945;28;20029;-39
2021/10/12 06:50:43;;;;;;;19.90;10.32;;;10.30;91.70;;;;;;5052901;28;20095;-39
2021/10/12 06:53:09;;;;;;;22.75;10.25;;;10.30;91.80;;;;;;5053054;28;20469;-38
2021/10/12 06:55:35;;;;;;;26.52;10.63;;;10.30;92.20;;;;;;5053005;28;20021;-39
2021/10/12 06:58:00;;;;;;;22.70;11.95;;;10.30;92.40;;;;;;5035526;28;20025;-39
2021/10/12 07:00:26;;;;;;;24.75;11.25;;;10.30;92.40;;;;;;5052870;28;20096;-37
2021/10/12 07:02:52;;;;;;;23.15;10.80;;;10.30;92.40;;;;;;5053064;28;20362;-38
2021/10/12 07:05:18;;;;;;;28.02;11.70;;;10.30;92.70;;;;;;5062632;28;20041;-37
2021/10/12 07:07:44;;;;;;;17.73;10.50;;;10.30;92.70;;;;;;5072964;28;20099;-37
2021/10/12 07:10:11;;;;;;;19.40;11.05;;;10.40;92.50;;;;;;5072786;28;20039;-37
2021/10/12 07:12:37;;;;;;;18.52;10.90;;;10.30;92.50;;;;;;5072784;28;20138;-37
2021/10/12 07:15:04;;;;;;;31.17;13.32;;;10.40;92.40;;;;;;5072863;28;20032;-37
2021/10/12 07:17:30;;;;;;;17.45;10.63;;;10.40;92.50;;;;;;5072793;28;20040;-36
2021/10/12 07:19:56;;;;;;;20.55;11.88;;;10.30;92.20;;;;;;5072422;28;20109;-37
2021/10/12 07:22:24;;;;;;;24.65;12.20;;;10.30;92.60;;;;;;5072331;28;20406;-37
2021/10/12 07:24:52;;;;;;;21.90;13.10;;;10.30;92.60;;;;;;5056277;28;20388;-38
2021/10/12 07:27:18;;;;;;;21.58;13.32;;;10.30;92.70;;;;;;5072717;28;20151;-39
2021/10/12 07:29:45;;;;;;;24.23;12.93;;;10.40;92.60;;;;;;5054418;28;20039;-38
2021/10/12 07:32:12;;;;;;;27.98;12.98;;;10.50;92.50;;;;;;5072721;28;20027;-38
2021/10/12 07:34:38;;;;;;;19.25;12.65;;;10.50;92.30;;;;;;5072486;28;20452;-38
2021/10/12 07:37:03;;;;;;;22.73;13.15;;;10.50;92.30;;;;;;5072457;28;20036;-38
2021/10/12 07:39:29;;;;;;;23.77;13.43;;;10.50;92.20;;;;;;5072526;28;20104;-37
2021/10/12 07:41:55;;;;;;;23.08;13.63;;;10.70;92.30;;;;;;5072419;28;20021;-37
2021/10/12 07:44:20;;;;;;;26.50;14.70;;;10.70;92.00;;;;;;5072183;28;20024;-37
2021/10/12 07:46:46;;;;;;;29.55;14.75;;;10.80;91.90;;;;;;5072301;28;20078;-39
2021/10/12 07:49:11;;;;;;;29.90;15.57;;;10.80;91.70;;;;;;5072984;28;20020;-36
2021/10/12 07:51:38;;;;;;;26.30;15.85;;;10.70;91.70;;;;;;5074288;28;20039;-37
2021/10/12 07:54:09;;;;;;;20.80;14.88;;;10.80;91.80;;;;;;5055216;28;20484;-37
2021/10/12 07:56:37;;;;;;;26.67;14.68;;;10.80;91.80;;;;;;5071800;28;20048;-37
2021/10/12 07:59:07;;;;;;;25.23;14.10;;;10.80;91.80;;;;;;5072359;28;20102;-37
2021/10/12 08:01:34;;;;;;;34.78;16.38;;;10.90;91.20;;;;;;5054042;28;20031;-37
2021/10/12 08:04:01;;;;;;;25.48;16.35;;;10.80;91.70;;;;;;5072290;28;20110;-37
2021/10/12 08:06:27;;;;;;;25.67;16.95;;;10.80;91.60;;;;;;5053625;28;20147;-42
2021/10/12 08:08:53;;;;;;;30.58;16.35;;;10.80;91.90;;;;;;5072010;28;20029;-38
2021/10/12 08:11:24;;;;;;;40.08;21.73;;;10.80;92.10;;;;;;5071571;28;20047;-38
2021/10/12 08:13:57;;;;;;;27.77;17.65;;;10.80;92.30;;;;;;5071791;28;20028;-38
2021/10/12 08:16:30;;;;;;;32.63;18.50;;;10.90;92.10;;;;;;5055767;28;20021;-38
2021/10/12 08:18:57;;;;;;;33.60;20.25;;;10.90;91.80;;;;;;5072130;28;20437;-38
2021/10/12 08:21:24;;;;;;;31.02;19.40;;;10.90;91.90;;;;;;5072143;28;20021;-37
2021/10/12 08:23:52;;;;;;;27.40;18.77;;;10.80;92.10;;;;;;5054527;28;20104;-37
2021/10/12 08:26:18;;;;;;;29.27;18.33;;;10.80;92.40;;;;;;5071714;28;20161;-37
2021/10/12 08:28:44;;;;;;;35.47;20.70;;;10.80;92.40;;;;;;5072228;28;20103;-37
2021/10/12 08:31:09;;;;;;;28.80;19.52;;;11.00;92.30;;;;;;5071540;28;20044;-37
2021/10/12 08:33:35;;;;;;;34.17;22.30;;;11.00;92.20;;;;;;5071451;28;20361;-37
2021/10/12 08:36:01;;;;;;;33.22;20.23;;;10.90;92.10;;;;;;5071915;28;20044;-38
2021/10/12 08:38:27;;;;;;;26.52;19.00;;;10.90;92.40;;;;;;5071884;28;20033;-38
2021/10/12 08:40:54;;;;;;;34.22;19.92;;;10.80;92.50;;;;;;5072873;28;20479;-38
2021/10/12 08:43:19;;;;;;;31.27;21.40;;;10.90;92.40;;;;;;5075584;28;20056;-37
2021/10/12 08:45:45;;;;;;;37.70;21.48;;;10.90;92.40;;;;;;5075399;28;20102;-38
2021/10/12 08:48:12;;;;;;;30.23;21.88;;;11.10;92.50;;;;;;5075722;28;20444;-37
2021/10/12 08:50:37;;;;;;;34.08;20.40;;;11.10;92.60;;;;;;5075612;28;20037;-37
2021/10/12 08:53:03;;;;;;;33.42;20.58;;;11.10;92.10;;;;;;5075509;28;20035;-37
2021/10/12 08:55:29;;;;;;;28.83;18.92;;;11.20;92.10;;;;;;5074767;28;20025;-37
2021/10/12 08:57:55;;;;;;;26.25;18.27;;;11.30;92.00;;;;;;5075429;28;20055;-37
2021/10/12 09:00:22;;;;;;;31.48;20.30;;;11.30;91.70;;;;;;5057248;28;20024;-38
2021/10/12 09:06:02;;;;;;;23.17;16.60;;;11.40;91.60;;;;;;5075111;28;20078;-37
2021/10/12 09:08:35;;;;;;;31.55;17.65;;;11.40;91.30;;;;;;5075089;28;20043;-38
2021/10/12 09:11:05;;;;;;;30.17;17.95;;;11.60;91.10;;;;;;5075306;28;20400;-37
2021/10/12 09:13:43;;;;;;;21.13;13.18;;;11.70;91.10;;;;;;5074880;28;20029;-37
2021/10/12 09:16:11;;;;;;;23.35;13.57;;;11.70;90.30;;;;;;5075110;28;20031;-39
2021/10/12 09:18:46;;;;;;;18.65;13.73;;;11.70;90.70;;;;;;5075124;28;20060;-38
2021/10/12 09:21:16;;;;;;;17.17;12.93;;;11.60;90.60;;;;;;5074953;28;20028;-37
2021/10/12 09:23:42;;;;;;;18.77;14.30;;;11.70;90.80;;;;;;5056653;28;20031;-38
2021/10/12 09:26:24;;;;;;;18.98;12.60;;;11.70;90.70;;;;;;5074242;28;20094;-37
2021/10/12 09:28:50;;;;;;;21.65;13.60;;;11.80;90.70;;;;;;5074650;28;20032;-36
2021/10/12 09:31:16;;;;;;;14.50;12.85;;;11.60;90.70;;;;;;5074706;28;20103;-36
2021/10/12 09:33:49;;;;;;;18.17;12.70;;;11.60;90.80;;;;;;5074259;28;20108;-36
2021/10/12 09:36:48;;;;;;;16.35;12.85;;;11.80;90.80;;;;;;5074360;28;20025;-37
2021/10/12 09:39:42;;;;;;;20.88;12.48;;;11.90;90.50;;;;;;5059348;28;20040;-38
2021/10/12 09:42:13;;;;;;;22.45;13.25;;;12.00;90.60;;;;;;5067162;28;20040;-37
2021/10/12 09:44:56;;;;;;;24.98;11.85;;;12.20;89.70;;;;;;5074386;28;20024;-38
2021/10/12 09:47:23;;;;;;;26.60;13.23;;;12.30;89.50;;;;;;5074698;28;20040;-38
2021/10/12 09:49:50;;;;;;;23.63;14.43;;;12.30;89.60;;;;;;5074445;28;20365;-38
2021/10/12 09:52:25;;;;;;;22.88;12.63;;;12.40;89.50;;;;;;5073438;28;20441;-38
2021/10/12 09:54:57;;;;;;;24.27;13.07;;;12.50;89.10;;;;;;5073941;28;20114;-37
2021/10/12 09:57:28;;;;;;;24.60;13.18;;;12.50;89.00;;;;;;5073785;28;20032;-37
2021/10/12 09:59:54;;;;;;;21.10;12.40;;;12.50;89.60;;;;;;5073855;28;20051;-37
2021/10/12 10:02:21;;;;;;;19.90;11.75;;;12.40;89.70;;;;;;5074289;28;20049;-39
2021/10/12 10:04:48;;;;;;;16.83;11.85;;;12.30;89.20;;;;;;5073900;28;20045;-38
2021/10/12 10:07:24;;;;;;;22.60;12.70;;;12.30;89.30;;;;;;5073910;28;20032;-38
2021/10/12 10:09:54;;;;;;;17.60;12.25;;;12.60;89.10;;;;;;5073820;28;20464;-38
2021/10/12 10:12:20;;;;;;;16.92;10.77;;;12.80;88.40;;;;;;5073801;28;20051;-37
2021/10/12 10:14:46;;;;;;;20.15;11.98;;;12.90;88.20;;;;;;5073733;28;20107;-37
2021/10/12 10:17:13;;;;;;;18.15;11.68;;;12.80;87.90;;;;;;5056667;28;20044;-38
2021/10/12 10:19:43;;;;;;;18.45;12.80;;;12.80;88.40;;;;;;5073715;28;20048;-38
2021/10/12 10:22:09;;;;;;;14.35;10.88;;;12.80;88.40;;;;;;5056098;28;20043;-37
2021/10/12 10:24:45;;;;;;;17.02;11.27;;;12.80;88.10;;;;;;5074014;28;20441;-37
2021/10/12 10:27:35;;;;;;;15.85;11.95;;;12.70;88.70;;;;;;5073685;28;20038;-38
2021/10/12 10:30:22;;;;;;;14.35;10.48;;;12.40;89.30;;;;;;5055469;28;20039;-37
2021/10/12 10:32:51;;;;;;;22.60;10.55;;;12.30;89.80;;;;;;5074049;28;20020;-39
2021/10/12 10:35:36;;;;;;;12.57;10.18;;;12.30;89.90;;;;;;5073033;28;20415;-38
2021/10/12 10:38:20;;;;;;;15.15;10.95;;;12.40;89.70;;;;;;5074003;28;20024;-38
2021/10/12 10:41:10;;;;;;;14.93;10.25;;;12.50;89.40;;;;;;5073442;28;20020;-37
2021/10/12 10:43:48;;;;;;;11.85;9.40;;;12.40;89.20;;;;;;5073542;28;20025;-38
2021/10/12 10:46:32;;;;;;;13.65;8.77;;;12.50;89.50;;;;;;5073076;28;20043;-38
2021/10/12 10:49:10;;;;;;;14.98;8.85;;;12.50;89.10;;;;;;5073234;28;20074;-38
2021/10/12 10:51:55;;;;;;;11.10;8.48;;;12.70;88.80;;;;;;5073164;28;20028;-38
2021/10/12 10:54:38;;;;;;;11.85;8.05;;;12.80;88.30;;;;;;5073021;28;20020;-38
2021/10/12 10:57:11;;;;;;;11.88;8.85;;;12.70;88.30;;;;;;5056354;28;20613;-38
2021/10/12 10:59:37;;;;;;;14.25;7.45;;;12.70;88.80;;;;;;5073276;28;20017;-38
2021/10/12 11:02:23;;;;;;;9.48;7.30;;;12.80;89.00;;;;;;5073478;28;20464;-38
2021/10/12 11:04:49;;;;;;;9.25;7.32;;;12.80;88.30;;;;;;5058389;28;20040;-38
2021/10/12 11:07:23;;;;;;;10.57;7.85;;;12.70;88.20;;;;;;5073325;28;20357;-38
2021/10/12 11:09:49;;;;;;;10.35;7.57;;;12.80;88.50;;;;;;5073091;28;20083;-38
2021/10/12 11:12:20;;;;;;;8.60;6.50;;;12.80;88.40;;;;;;5073087;28;20120;-49
2021/10/12 11:14:46;;;;;;;10.05;5.45;;;12.90;88.00;;;;;;5054596;28;20056;-48
2021/10/12 11:17:12;;;;;;;8.50;4.55;;;13.00;86.30;;;;;;5072865;28;20097;-48
2021/10/12 11:20:14;;;;;;;8.27;5.00;;;13.00;85.80;;;;;;5072838;28;20445;-50
2021/10/12 11:22:42;;;;;;;6.80;5.30;;;13.00;85.10;;;;;;5054791;28;20072;-50
2021/10/12 11:25:08;;;;;;;8.48;5.78;;;13.00;86.00;;;;;;5054501;28;20082;-49
2021/10/12 11:27:45;;;;;;;5.18;4.40;;;13.00;86.10;;;;;;5072530;28;20101;-51
2021/10/12 11:30:13;;;;;;;9.25;4.80;;;12.90;86.70;;;;;;5072382;28;20029;-49
2021/10/12 11:32:42;;;;;;;5.60;3.95;;;12.80;86.50;;;;;;5072838;28;20021;-49
2021/10/12 11:35:10;;;;;;;7.00;4.77;;;12.80;86.80;;;;;;5055639;28;20047;-49
2021/10/12 11:37:53;;;;;;;10.18;6.55;;;12.80;87.40;;;;;;5072797;28;20020;-49
2021/10/12 11:40:22;;;;;;;6.75;5.65;;;12.80;88.20;;;;;;5072603;28;20020;-49
2021/10/12 11:42:48;;;;;;;6.20;4.32;;;12.90;88.10;;;;;;5072297;28;20123;-50
2021/10/12 11:45:13;;;;;;;6.07;4.28;;;13.30;86.60;;;;;;5073036;28;20032;-48
2021/10/12 11:47:39;;;;;;;6.40;4.03;;;13.70;85.20;;;;;;5072190;28;20082;-50
2021/10/12 11:50:13;;;;;;;4.15;3.72;;;13.80;84.40;;;;;;5054621;28;20322;-51
2021/10/12 11:52:39;;;;;;;8.05;3.78;;;14.10;84.00;;;;;;5072518;28;20025;-49
2021/10/12 11:55:06;;;;;;;6.93;3.30;;;14.30;83.20;;;;;;5072768;28;20102;-49
2021/10/12 11:57:32;;;;;;;7.28;3.47;;;14.00;83.50;;;;;;5072332;28;20489;-48
2021/10/12 11:59:58;;;;;;;4.38;2.75;;;13.80;84.30;;;;;;5071910;28;20025;-49
2021/10/12 12:02:24;;;;;;;3.60;3.13;;;13.70;84.10;;;;;;5073018;28;20138;-51
2021/10/12 12:04:53;;;;;;;6.60;2.90;;;13.50;84.80;;;;;;5053805;28;20067;-47
2021/10/12 12:07:19;;;;;;;2.60;2.40;;;13.50;85.10;;;;;;5072323;28;20074;-46
2021/10/12 12:09:46;;;;;;;6.65;2.45;;;13.50;85.50;;;;;;5054649;28;20033;-45
2021/10/12 12:12:13;;;;;;;1.05;0.70;;;12.50;86.80;;;;;;5054424;28;20036;-45
2021/10/12 12:14:41;;;;;;;2.05;0.60;;;11.60;87.00;;;;;;5054843;28;20445;-47
2021/10/12 12:17:14;;;;;;;2.60;0.85;;;11.40;87.70;;;;;;5075396;28;20074;-48
2021/10/12 12:19:44;;;;;;;1.15;0.65;;;11.30;88.10;;;;;;5076641;28;20071;-47
2021/10/12 12:22:20;;;;;;;2.08;0.70;;;11.30;88.70;;;;;;5076272;28;20021;-48
2021/10/12 12:24:55;;;;;;;1.25;0.73;;;11.30;88.10;;;;;;5076060;28;20028;-48
2021/10/12 12:27:21;;;;;;;0.57;0.50;;;11.30;87.80;;;;;;5076508;28;20376;-50
2021/10/12 12:30:08;;;;;;;0.77;0.40;;;11.40;86.90;;;;;;5075890;28;20032;-51
2021/10/12 12:32:35;;;;;;;2.40;0.60;;;11.40;86.70;;;;;;5075720;28;20024;-49
2021/10/12 12:35:02;;;;;;;1.27;0.60;;;11.40;87.00;;;;;;5075733;28;20060;-49
2021/10/12 12:37:28;;;;;;;3.38;1.10;;;11.40;87.80;;;;;;5075856;28;20025;-50